createdAt,value
2022-11-09T00:01:42.664Z,10.20
2022-11-09T00:04:09.850Z,10.20
2022-11-09T00:06:37.254Z,10.20
2022-11-09T00:09:07.824Z,10.20
2022-11-09T00:11:36.049Z,10.20
2022-11-09T00:14:02.587Z,10.20
2022-11-09T00:16:29.228Z,10.20
2022-11-09T00:18:55.982Z,10.20
2022-11-09T00:21:24.852Z,10.20
2022-11-09T00:23:52.667Z,10.20
2022-11-09T00:26:20.272Z,10.20
2022-11-09T00:28:47.523Z,10.10
2022-11-09T00:31:17.532Z,10.10
2022-11-09T00:33:50.683Z,10.10
2022-11-09T00:36:19.944Z,10.10
2022-11-09T00:39:00.572Z,10.10
2022-11-09T00:41:28.337Z,10.30
2022-11-09T00:43:54.944Z,10.30
2022-11-09T00:46:22.015Z,10.30
2022-11-09T00:48:48.910Z,10.30
2022-11-09T00:51:15.686Z,10.30
2022-11-09T00:53:42.838Z,10.30
2022-11-09T00:56:13.268Z,10.40
2022-11-09T00:58:40.937Z,10.40
2022-11-09T01:01:12.941Z,10.50
2022-11-09T01:03:40.237Z,10.50
2022-11-09T01:06:07.769Z,10.50
2022-11-09T01:08:35.386Z,10.50
2022-11-09T01:11:07.203Z,10.60
2022-11-09T01:13:34.428Z,10.60
2022-11-09T01:16:09.243Z,10.70
2022-11-09T01:18:36.490Z,10.70
2022-11-09T01:21:06.991Z,10.90
2022-11-09T01:23:34.161Z,11.10
2022-11-09T01:26:02.324Z,11.30
2022-11-09T01:28:29.098Z,11.30
2022-11-09T01:30:55.736Z,11.40
2022-11-09T01:33:22.377Z,11.70
2022-11-09T01:35:48.966Z,11.70
2022-11-09T01:38:15.538Z,11.70
2022-11-09T01:40:42.107Z,11.70
2022-11-09T01:43:26.840Z,11.70
2022-11-09T01:46:12.032Z,11.70
2022-11-09T01:48:51.462Z,11.70
2022-11-09T01:51:31.618Z,11.70
2022-11-09T01:54:20.628Z,11.70
2022-11-09T01:56:50.654Z,11.60
2022-11-09T01:59:21.802Z,11.60
2022-11-09T02:01:49.494Z,11.60
2022-11-09T02:04:24.710Z,11.60
2022-11-09T02:06:51.781Z,11.60
2022-11-09T02:09:29.961Z,11.60
2022-11-09T02:11:57.018Z,11.60
2022-11-09T02:14:26.524Z,11.80
2022-11-09T02:16:53.253Z,11.90
2022-11-09T02:19:19.833Z,12.10
2022-11-09T02:21:46.491Z,12.30
2022-11-09T02:24:13.103Z,12.30
2022-11-09T02:26:49.347Z,12.30
2022-11-09T02:29:19.834Z,12.30
2022-11-09T02:32:02.864Z,12.30
2022-11-09T02:34:29.477Z,12.20
2022-11-09T02:36:56.061Z,12.10
2022-11-09T02:39:25.512Z,12.10
2022-11-09T02:42:18.344Z,12.10
2022-11-09T02:44:52.943Z,12.00
2022-11-09T02:47:19.483Z,12.00
2022-11-09T02:49:46.425Z,12.00
2022-11-09T02:52:13.029Z,12.00
2022-11-09T02:54:39.549Z,12.00
2022-11-09T02:57:06.108Z,12.00
2022-11-09T02:59:32.725Z,12.00
2022-11-09T03:01:59.459Z,11.90
2022-11-09T03:04:26.069Z,11.90
2022-11-09T03:06:52.815Z,12.00
2022-11-09T03:09:19.604Z,12.00
2022-11-09T03:11:46.460Z,11.90
2022-11-09T03:14:13.123Z,11.90
2022-11-09T03:16:40.105Z,11.80
2022-11-09T03:19:07.338Z,11.70
2022-11-09T03:21:34.590Z,11.50
2022-11-09T03:24:01.198Z,11.30
2022-11-09T03:26:27.777Z,11.20
2022-11-09T03:28:54.309Z,11.00
2022-11-09T03:31:20.912Z,11.00
2022-11-09T03:33:47.466Z,10.90
2022-11-09T03:36:15.073Z,10.90
2022-11-09T03:38:41.609Z,10.90
2022-11-09T03:41:08.139Z,10.90
2022-11-09T03:43:34.949Z,10.90
2022-11-09T03:46:01.516Z,10.90
2022-11-09T03:48:28.085Z,10.80
2022-11-09T03:50:54.634Z,10.80
2022-11-09T03:53:21.444Z,10.70
2022-11-09T03:55:48.148Z,10.60
2022-11-09T03:58:14.709Z,10.60
2022-11-09T04:00:41.322Z,10.50
2022-11-09T04:03:07.863Z,10.50
2022-11-09T04:05:34.480Z,10.40
2022-11-09T04:08:01.101Z,10.40
2022-11-09T04:10:27.911Z,10.30
2022-11-09T04:12:54.695Z,10.30
2022-11-09T04:15:21.679Z,10.20
2022-11-09T04:17:59.159Z,10.20
2022-11-09T04:20:27.559Z,10.20
2022-11-09T04:22:59.394Z,10.20
2022-11-09T04:25:26.478Z,10.20
2022-11-09T04:27:59.876Z,10.20
2022-11-09T04:30:30.498Z,10.20
2022-11-09T04:32:58.454Z,10.20
2022-11-09T04:35:26.564Z,10.20
2022-11-09T04:38:05.757Z,10.20
2022-11-09T04:40:33.983Z,10.20
2022-11-09T04:43:01.738Z,10.20
2022-11-09T04:45:28.554Z,10.20
2022-11-09T04:48:02.113Z,10.20
2022-11-09T04:50:29.708Z,10.10
2022-11-09T04:53:07.625Z,10.20
2022-11-09T04:55:34.667Z,10.20
2022-11-09T04:58:01.452Z,10.20
2022-11-09T05:00:28.082Z,10.10
2022-11-09T05:02:54.668Z,10.20
2022-11-09T05:05:21.230Z,10.20
2022-11-09T05:07:47.783Z,10.20
2022-11-09T05:10:14.780Z,10.20
2022-11-09T05:12:45.735Z,10.20
2022-11-09T05:15:12.538Z,10.20
2022-11-09T05:17:39.150Z,10.20
2022-11-09T05:20:06.158Z,10.20
2022-11-09T05:22:51.335Z,10.20
2022-11-09T05:25:17.934Z,10.20
2022-11-09T05:27:44.480Z,10.10
2022-11-09T05:30:11.612Z,10.20
2022-11-09T05:32:41.196Z,10.10
2022-11-09T05:35:08.210Z,10.10
2022-11-09T05:37:34.778Z,10.20
2022-11-09T05:40:01.440Z,10.20
2022-11-09T05:42:27.970Z,10.20
2022-11-09T05:44:55.592Z,10.10
2022-11-09T05:47:22.197Z,10.10
2022-11-09T05:49:48.778Z,10.10
2022-11-09T05:52:15.345Z,10.10
2022-11-09T05:54:41.890Z,10.10
2022-11-09T05:57:08.588Z,10.10
2022-11-09T05:59:35.178Z,10.10
2022-11-09T06:02:01.979Z,10.10
2022-11-09T06:04:28.624Z,10.10
2022-11-09T06:06:55.269Z,10.10
2022-11-09T06:09:21.879Z,10.10
2022-11-09T06:11:50.496Z,10.10
2022-11-09T06:14:17.016Z,10.10
2022-11-09T06:16:43.584Z,10.10
2022-11-09T06:19:10.218Z,10.10
2022-11-09T06:21:36.777Z,10.10
2022-11-09T06:24:03.368Z,10.10
2022-11-09T06:26:29.918Z,10.10
2022-11-09T06:28:56.956Z,10.20
2022-11-09T06:31:23.536Z,10.20
2022-11-09T06:34:28.223Z,10.20
2022-11-09T06:36:55.153Z,10.20
2022-11-09T06:39:22.149Z,10.20
2022-11-09T06:41:48.734Z,10.20
2022-11-09T06:44:15.669Z,10.10
2022-11-09T06:46:42.285Z,10.20
2022-11-09T06:49:08.957Z,10.20
2022-11-09T06:51:35.489Z,10.20
2022-11-09T06:54:02.310Z,10.20
2022-11-09T06:56:28.939Z,10.20
2022-11-09T06:58:55.501Z,10.30
2022-11-09T07:01:26.859Z,10.30
2022-11-09T07:03:53.449Z,10.30
2022-11-09T07:06:19.989Z,10.30
2022-11-09T07:08:46.549Z,10.40
2022-11-09T07:11:16.234Z,10.40
2022-11-09T07:13:43.032Z,10.50
2022-11-09T07:16:12.171Z,10.50
2022-11-09T07:18:38.830Z,10.50
2022-11-09T07:21:08.808Z,10.50
2022-11-09T07:23:39.899Z,10.50
2022-11-09T07:26:06.636Z,10.60
2022-11-09T07:28:33.237Z,10.60
2022-11-09T07:30:59.981Z,10.70
2022-11-09T07:33:30.094Z,10.70
2022-11-09T07:35:58.849Z,10.60
2022-11-09T07:38:25.803Z,10.70
2022-11-09T07:40:52.397Z,10.70
2022-11-09T07:43:19.706Z,10.80
2022-11-09T07:45:46.414Z,10.80
2022-11-09T07:48:13.044Z,10.90
2022-11-09T07:50:40.616Z,10.90
2022-11-09T07:53:08.526Z,11.00
2022-11-09T07:55:35.849Z,11.00
2022-11-09T07:58:14.201Z,11.00
2022-11-09T08:00:42.284Z,11.00
2022-11-09T08:03:09.396Z,11.00
2022-11-09T08:05:36.278Z,11.10
2022-11-09T08:08:06.404Z,11.10
2022-11-09T08:10:34.003Z,11.10
2022-11-09T08:13:03.975Z,11.20
2022-11-09T08:15:30.929Z,11.20
2022-11-09T08:18:02.417Z,11.20
2022-11-09T08:20:29.836Z,11.20
2022-11-09T08:23:02.332Z,11.20
2022-11-09T08:25:30.983Z,11.20
2022-11-09T08:27:57.610Z,11.30
2022-11-09T08:30:24.549Z,11.20
2022-11-09T08:32:51.853Z,11.10
2022-11-09T08:35:23.138Z,11.10
2022-11-09T08:37:51.050Z,11.10
2022-11-09T08:40:20.181Z,11.10
2022-11-09T08:42:47.201Z,11.10
2022-11-09T08:45:14.707Z,11.10
2022-11-09T08:47:41.643Z,11.20
2022-11-09T08:50:10.318Z,11.30
2022-11-09T08:52:37.910Z,11.40
2022-11-09T08:55:05.265Z,11.50
2022-11-09T08:57:32.329Z,11.60
2022-11-09T08:59:58.955Z,11.60
2022-11-09T09:02:25.548Z,11.70
2022-11-09T09:04:52.100Z,11.80
2022-11-09T09:07:18.670Z,11.70
2022-11-09T09:09:45.280Z,11.80
2022-11-09T09:12:11.833Z,11.80
2022-11-09T09:14:38.407Z,11.80
2022-11-09T09:17:05.016Z,11.80
2022-11-09T09:19:31.935Z,11.80
2022-11-09T09:21:59.281Z,11.90
2022-11-09T09:24:26.830Z,11.90
2022-11-09T09:26:53.648Z,11.80
2022-11-09T09:29:20.339Z,11.90
2022-11-09T09:31:46.897Z,11.90
2022-11-09T09:34:14.296Z,11.90
2022-11-09T09:36:44.848Z,11.90
2022-11-09T09:39:14.567Z,11.90
2022-11-09T09:41:53.230Z,12.00
2022-11-09T09:44:43.422Z,12.10
2022-11-09T09:47:22.094Z,12.40
2022-11-09T09:49:55.012Z,12.50
2022-11-09T09:52:34.363Z,12.60
2022-11-09T09:55:22.058Z,12.80
2022-11-09T09:57:56.911Z,13.00
2022-11-09T10:00:26.125Z,13.30
2022-11-09T10:02:54.375Z,13.40
2022-11-09T10:05:28.145Z,13.40
2022-11-09T10:08:16.021Z,13.40
2022-11-09T10:10:56.214Z,13.70
2022-11-09T10:13:51.920Z,13.60
2022-11-09T10:16:35.080Z,13.60
2022-11-09T10:19:13.569Z,13.60
2022-11-09T10:21:51.617Z,13.60
2022-11-09T10:24:36.798Z,13.70
2022-11-09T10:27:25.244Z,13.70
2022-11-09T10:29:51.862Z,13.80
2022-11-09T10:32:21.128Z,13.90
2022-11-09T10:35:06.514Z,14.00
2022-11-09T10:37:41.340Z,14.00
2022-11-09T10:40:29.609Z,14.00
2022-11-09T10:43:01.644Z,14.10
2022-11-09T10:45:37.538Z,14.10
2022-11-09T10:48:06.228Z,14.10
2022-11-09T10:50:41.675Z,14.20
2022-11-09T10:53:13.941Z,14.20
2022-11-09T10:55:50.063Z,14.20
2022-11-09T10:58:31.375Z,14.20
2022-11-09T11:01:04.814Z,14.40
2022-11-09T11:03:36.451Z,14.50
2022-11-09T11:06:06.937Z,14.50
2022-11-09T11:08:43.342Z,14.50
2022-11-09T11:11:36.333Z,14.60
2022-11-09T11:14:26.875Z,14.60
2022-11-09T11:16:53.820Z,14.60
2022-11-09T11:19:41.322Z,14.70
2022-11-09T11:22:14.341Z,14.90
2022-11-09T11:25:02.943Z,15.00
2022-11-09T11:27:50.322Z,15.00
2022-11-09T11:30:22.809Z,15.00
2022-11-09T11:32:50.869Z,15.10
2022-11-09T11:35:42.320Z,15.10
2022-11-09T11:38:34.454Z,15.10
2022-11-09T11:41:25.394Z,15.00
2022-11-09T11:44:20.318Z,15.10
2022-11-09T11:47:01.664Z,15.00
2022-11-09T11:49:46.057Z,14.90
2022-11-09T11:52:24.474Z,14.90
2022-11-09T11:55:13.923Z,14.90
2022-11-09T11:58:00.101Z,15.10
2022-11-09T12:00:27.037Z,15.20
2022-11-09T12:02:59.928Z,15.20
2022-11-09T12:06:04.237Z,15.30
2022-11-09T12:08:49.818Z,15.40
2022-11-09T12:11:52.885Z,15.30
2022-11-09T12:14:19.431Z,15.20
2022-11-09T12:17:08.070Z,15.10
2022-11-09T12:19:45.313Z,15.10
2022-11-09T12:22:22.751Z,15.00
2022-11-09T12:25:09.501Z,15.00
2022-11-09T12:28:13.888Z,14.90
2022-11-09T12:30:52.832Z,14.90
2022-11-09T12:33:32.304Z,14.90
2022-11-09T12:36:18.817Z,14.80
2022-11-09T12:38:58.411Z,14.90
2022-11-09T12:41:31.265Z,14.80
2022-11-09T12:44:26.360Z,14.90
2022-11-09T12:47:01.512Z,14.90
2022-11-09T12:49:36.039Z,14.90
2022-11-09T12:52:08.233Z,14.90
2022-11-09T12:54:36.867Z,14.80
2022-11-09T12:57:07.679Z,14.90
2022-11-09T12:59:36.608Z,14.90
2022-11-09T13:02:05.219Z,15.00
2022-11-09T13:04:32.250Z,15.00
2022-11-09T13:07:07.506Z,15.00
2022-11-09T13:09:44.500Z,15.00
2022-11-09T13:12:31.274Z,15.00
2022-11-09T13:15:11.705Z,14.90
2022-11-09T13:17:38.198Z,15.00
2022-11-09T13:26:33.553Z,14.90
2022-11-09T13:29:15.989Z,14.90
2022-11-09T13:32:03.516Z,14.90
2022-11-09T13:34:47.131Z,14.90
2022-11-09T13:37:41.645Z,14.90
2022-11-09T13:40:30.258Z,14.90
2022-11-09T13:42:58.239Z,14.90
2022-11-09T13:46:07.134Z,14.90
2022-11-09T13:48:39.634Z,14.90
2022-11-09T13:51:22.971Z,14.90
2022-11-09T13:54:01.642Z,14.90
2022-11-09T13:56:35.201Z,14.80
2022-11-09T13:59:15.282Z,14.80
2022-11-09T14:01:54.167Z,14.80
2022-11-09T14:04:30.050Z,14.80
2022-11-09T14:07:11.717Z,14.70
2022-11-09T14:09:45.596Z,14.70
2022-11-09T14:12:35.496Z,14.60
2022-11-09T14:15:39.589Z,14.60
2022-11-09T14:18:15.394Z,14.50
2022-11-09T14:20:57.103Z,14.50
2022-11-09T14:23:28.839Z,14.50
2022-11-09T14:25:55.962Z,14.40
2022-11-09T14:28:26.872Z,14.40
2022-11-09T14:30:53.587Z,14.30
2022-11-09T14:33:23.365Z,14.30
2022-11-09T14:35:51.406Z,14.20
2022-11-09T14:38:28.473Z,14.20
2022-11-09T14:40:55.667Z,14.10
2022-11-09T14:43:37.260Z,14.10
2022-11-09T14:46:07.513Z,14.00
2022-11-09T14:48:36.134Z,13.90
2022-11-09T14:51:05.487Z,13.80
2022-11-09T14:53:35.357Z,13.70
2022-11-09T14:56:06.340Z,13.70
2022-11-09T14:58:35.914Z,13.60
2022-11-09T15:01:17.679Z,13.50
2022-11-09T15:03:44.966Z,13.50
2022-11-09T15:06:16.995Z,13.40
2022-11-09T15:09:00.145Z,13.30
2022-11-09T15:11:37.139Z,13.30
2022-11-09T15:14:26.634Z,13.30
2022-11-09T15:17:16.504Z,13.20
2022-11-09T15:19:53.893Z,13.30
2022-11-09T15:22:47.633Z,13.20
2022-11-09T15:25:22.507Z,13.10
2022-11-09T15:28:14.313Z,13.20
2022-11-09T15:30:48.706Z,13.10
2022-11-09T15:33:24.311Z,13.10
2022-11-09T15:38:40.898Z,13.00
2022-11-09T15:41:26.392Z,13.00
2022-11-09T15:43:53.310Z,12.80
2022-11-09T15:46:47.441Z,12.70
2022-11-09T15:49:16.153Z,12.70
2022-11-09T15:51:43.277Z,12.60
2022-11-09T15:54:10.058Z,12.60
2022-11-09T15:56:37.330Z,12.50
2022-11-09T15:59:04.346Z,12.50
2022-11-09T16:11:20.853Z,12.50
2022-11-09T17:58:04.674Z,12.00
2022-11-09T18:00:31.241Z,12.00
2022-11-09T18:02:57.884Z,11.90
2022-11-09T18:05:24.442Z,11.90
2022-11-09T18:07:50.972Z,11.80
2022-11-09T18:10:17.509Z,11.80
2022-11-09T18:12:44.079Z,11.80
2022-11-09T18:15:11.177Z,11.80
2022-11-09T18:17:37.712Z,11.70
2022-11-09T18:20:04.980Z,11.70
2022-11-09T18:22:31.527Z,11.70
2022-11-09T18:24:58.126Z,11.60
2022-11-09T18:27:29.929Z,11.60
2022-11-09T18:29:56.926Z,11.70
2022-11-09T18:32:23.535Z,11.60
2022-11-09T18:37:22.709Z,11.60
2022-11-09T18:42:24.947Z,11.60
2022-11-09T18:44:51.528Z,11.70
2022-11-09T18:47:18.231Z,11.70
2022-11-09T18:49:44.829Z,11.60
2022-11-09T18:52:11.796Z,11.60
2022-11-09T18:54:38.447Z,11.60
2022-11-09T18:57:05.162Z,11.70
2022-11-09T18:59:31.712Z,11.60
2022-11-09T19:01:58.298Z,11.60
2022-11-09T19:04:24.837Z,11.60
2022-11-09T19:06:51.506Z,11.60
2022-11-09T19:09:34.743Z,11.60
